sensor_id;sensor_type;location;lat;lon;timestamp;temperature;humidity
16515;DHT22;8370;52.556;7.970;2023-02-01T00:01:39;5.70;99.90
16515;DHT22;8370;52.556;7.970;2023-02-01T00:04:05;5.70;99.90
16515;DHT22;8370;52.556;7.970;2023-02-01T00:06:30;5.70;99.90
16515;DHT22;8370;52.556;7.970;2023-02-01T00:08:56;5.70;99.90
16515;DHT22;8370;52.556;7.970;2023-02-01T00:11:22;5.70;99.90
16515;DHT22;8370;52.556;7.970;2023-02-01T00:13:49;5.70;99.90
16515;DHT22;8370;52.556;7.970;2023-02-01T00:16:20;5.70;99.90
16515;DHT22;8370;52.556;7.970;2023-02-01T00:18:47;5.60;99.90
16515;DHT22;8370;52.556;7.970;2023-02-01T00:21:15;5.60;99.90
16515;DHT22;8370;52.556;7.970;2023-02-01T00:23:40;5.60;99.90
16515;DHT22;8370;52.556;7.970;2023-02-01T00:26:09;5.60;99.90
16515;DHT22;8370;52.556;7.970;2023-02-01T00:28:36;5.60;99.90
16515;DHT22;8370;52.556;7.970;2023-02-01T00:31:04;5.60;99.90
16515;DHT22;8370;52.556;7.970;2023-02-01T00:33:30;5.60;99.90
16515;DHT22;8370;52.556;7.970;2023-02-01T00:36:01;5.60;99.90
16515;DHT22;8370;52.556;7.970;2023-02-01T00:38:29;5.60;99.90
16515;DHT22;8370;52.556;7.970;2023-02-01T00:41:01;5.60;99.90
16515;DHT22;8370;52.556;7.970;2023-02-01T00:43:26;5.60;99.90
16515;DHT22;8370;52.556;7.970;2023-02-01T00:45:52;5.70;99.90
16515;DHT22;8370;52.556;7.970;2023-02-01T00:48:17;5.60;99.90
16515;DHT22;8370;52.556;7.970;2023-02-01T00:50:43;5.60;99.90
16515;DHT22;8370;52.556;7.970;2023-02-01T00:53:09;5.60;99.90
16515;DHT22;8370;52.556;7.970;2023-02-01T00:55:35;5.60;99.90
16515;DHT22;8370;52.556;7.970;2023-02-01T00:58:00;5.60;99.90
16515;DHT22;8370;52.556;7.970;2023-02-01T01:00:26;5.60;99.90
16515;DHT22;8370;52.556;7.970;2023-02-01T01:02:52;5.60;99.90
16515;DHT22;8370;52.556;7.970;2023-02-01T01:05:17;5.60;99.90
16515;DHT22;8370;52.556;7.970;2023-02-01T01:07:43;5.60;99.90
16515;DHT22;8370;52.556;7.970;2023-02-01T01:10:08;5.60;99.90
16515;DHT22;8370;52.556;7.970;2023-02-01T01:12:34;5.60;99.90
16515;DHT22;8370;52.556;7.970;2023-02-01T01:15:00;5.60;99.90
16515;DHT22;8370;52.556;7.970;2023-02-01T01:17:25;5.60;99.90
16515;DHT22;8370;52.556;7.970;2023-02-01T01:19:51;5.60;99.90
16515;DHT22;8370;52.556;7.970;2023-02-01T01:22:16;5.60;99.90
16515;DHT22;8370;52.556;7.970;2023-02-01T01:24:43;5.60;99.90
16515;DHT22;8370;52.556;7.970;2023-02-01T01:27:08;5.60;99.90
16515;DHT22;8370;52.556;7.970;2023-02-01T01:29:34;5.60;99.90
16515;DHT22;8370;52.556;7.970;2023-02-01T01:31:59;5.60;99.90
16515;DHT22;8370;52.556;7.970;2023-02-01T01:34:25;5.60;99.90
16515;DHT22;8370;52.556;7.970;2023-02-01T01:36:50;5.60;99.90
16515;DHT22;8370;52.556;7.970;2023-02-01T01:39:16;5.60;99.90
16515;DHT22;8370;52.556;7.970;2023-02-01T01:41:41;5.60;99.90
16515;DHT22;8370;52.556;7.970;2023-02-01T01:47:11;5.70;99.90
16515;DHT22;8370;52.556;7.970;2023-02-01T01:49:37;5.60;99.90
16515;DHT22;8370;52.556;7.970;2023-02-01T01:52:03;5.60;99.90
16515;DHT22;8370;52.556;7.970;2023-02-01T01:54:39;5.70;99.90
16515;DHT22;8370;52.556;7.970;2023-02-01T01:57:13;5.60;99.90
16515;DHT22;8370;52.556;7.970;2023-02-01T01:59:40;5.60;99.90
16515;DHT22;8370;52.556;7.970;2023-02-01T02:02:08;5.70;99.90
16515;DHT22;8370;52.556;7.970;2023-02-01T02:04:34;5.60;99.90
16515;DHT22;8370;52.556;7.970;2023-02-01T02:07:13;5.60;99.90
16515;DHT22;8370;52.556;7.970;2023-02-01T02:09:40;5.70;99.90
16515;DHT22;8370;52.556;7.970;2023-02-01T02:12:05;5.60;99.90
16515;DHT22;8370;52.556;7.970;2023-02-01T02:14:31;5.70;99.90
16515;DHT22;8370;52.556;7.970;2023-02-01T02:17:13;5.70;99.90
16515;DHT22;8370;52.556;7.970;2023-02-01T02:23:09;5.70;99.90
16515;DHT22;8370;52.556;7.970;2023-02-01T02:26:00;5.80;99.90
16515;DHT22;8370;52.556;7.970;2023-02-01T02:32:00;5.80;99.90
16515;DHT22;8370;52.556;7.970;2023-02-01T02:34:33;5.80;99.90
16515;DHT22;8370;52.556;7.970;2023-02-01T02:37:32;5.80;99.90
16515;DHT22;8370;52.556;7.970;2023-02-01T02:40:06;5.80;99.90
16515;DHT22;8370;52.556;7.970;2023-02-01T02:45:36;5.80;99.90
16515;DHT22;8370;52.556;7.970;2023-02-01T02:48:34;5.80;99.90
16515;DHT22;8370;52.556;7.970;2023-02-01T02:54:08;5.90;99.90
16515;DHT22;8370;52.556;7.970;2023-02-01T02:56:56;5.80;99.90
16515;DHT22;8370;52.556;7.970;2023-02-01T02:59:43;5.80;99.90
16515;DHT22;8370;52.556;7.970;2023-02-01T03:02:28;5.80;99.90
16515;DHT22;8370;52.556;7.970;2023-02-01T03:05:13;5.90;99.90
16515;DHT22;8370;52.556;7.970;2023-02-01T03:07:55;5.90;99.90
16515;DHT22;8370;52.556;7.970;2023-02-01T03:13:08;5.80;99.90
16515;DHT22;8370;52.556;7.970;2023-02-01T03:18:14;5.80;99.90
16515;DHT22;8370;52.556;7.970;2023-02-01T03:20:44;5.80;99.90
16515;DHT22;8370;52.556;7.970;2023-02-01T03:23:14;5.80;99.90
16515;DHT22;8370;52.556;7.970;2023-02-01T03:25:41;5.80;99.90
16515;DHT22;8370;52.556;7.970;2023-02-01T03:28:08;5.80;99.90
16515;DHT22;8370;52.556;7.970;2023-02-01T03:30:37;5.70;99.90
16515;DHT22;8370;52.556;7.970;2023-02-01T03:33:11;5.60;99.90
16515;DHT22;8370;52.556;7.970;2023-02-01T03:36:07;5.60;99.90
16515;DHT22;8370;52.556;7.970;2023-02-01T03:39:03;5.40;99.90
16515;DHT22;8370;52.556;7.970;2023-02-01T03:41:43;5.30;99.90
16515;DHT22;8370;52.556;7.970;2023-02-01T03:44:14;5.20;99.90
16515;DHT22;8370;52.556;7.970;2023-02-01T03:46:54;5.20;99.90
16515;DHT22;8370;52.556;7.970;2023-02-01T03:49:28;5.20;99.90
16515;DHT22;8370;52.556;7.970;2023-02-01T03:51:55;5.10;99.90
16515;DHT22;8370;52.556;7.970;2023-02-01T03:54:22;5.10;99.90
16515;DHT22;8370;52.556;7.970;2023-02-01T03:56:50;5.10;99.90
16515;DHT22;8370;52.556;7.970;2023-02-01T03:59:17;5.10;99.90
16515;DHT22;8370;52.556;7.970;2023-02-01T04:01:43;5.10;99.90
16515;DHT22;8370;52.556;7.970;2023-02-01T04:04:09;5.00;99.90
16515;DHT22;8370;52.556;7.970;2023-02-01T04:06:34;4.90;99.90
16515;DHT22;8370;52.556;7.970;2023-02-01T04:09:00;4.90;99.90
16515;DHT22;8370;52.556;7.970;2023-02-01T04:11:25;4.90;99.90
16515;DHT22;8370;52.556;7.970;2023-02-01T04:13:53;4.90;99.90
16515;DHT22;8370;52.556;7.970;2023-02-01T04:16:18;4.80;99.90
16515;DHT22;8370;52.556;7.970;2023-02-01T04:18:44;4.90;99.90
16515;DHT22;8370;52.556;7.970;2023-02-01T04:21:09;4.90;99.90
16515;DHT22;8370;52.556;7.970;2023-02-01T04:23:34;4.90;99.90
16515;DHT22;8370;52.556;7.970;2023-02-01T04:26:03;4.90;99.90
16515;DHT22;8370;52.556;7.970;2023-02-01T04:28:30;4.90;99.90
16515;DHT22;8370;52.556;7.970;2023-02-01T04:30:56;5.00;99.90
16515;DHT22;8370;52.556;7.970;2023-02-01T04:33:22;5.00;99.90
16515;DHT22;8370;52.556;7.970;2023-02-01T04:35:47;5.00;99.90
16515;DHT22;8370;52.556;7.970;2023-02-01T04:38:13;5.00;99.90
16515;DHT22;8370;52.556;7.970;2023-02-01T04:40:38;4.90;99.90
16515;DHT22;8370;52.556;7.970;2023-02-01T04:43:04;4.90;99.90
16515;DHT22;8370;52.556;7.970;2023-02-01T04:45:30;4.90;99.90
16515;DHT22;8370;52.556;7.970;2023-02-01T04:47:55;4.90;99.90
16515;DHT22;8370;52.556;7.970;2023-02-01T04:50:21;4.90;99.90
16515;DHT22;8370;52.556;7.970;2023-02-01T04:52:47;4.90;99.90
16515;DHT22;8370;52.556;7.970;2023-02-01T04:55:12;4.90;99.90
16515;DHT22;8370;52.556;7.970;2023-02-01T04:57:41;4.90;99.90
16515;DHT22;8370;52.556;7.970;2023-02-01T05:00:08;4.90;99.90
16515;DHT22;8370;52.556;7.970;2023-02-01T05:02:34;4.90;99.90
16515;DHT22;8370;52.556;7.970;2023-02-01T05:05:00;4.80;99.90
16515;DHT22;8370;52.556;7.970;2023-02-01T05:07:26;4.90;99.90
16515;DHT22;8370;52.556;7.970;2023-02-01T05:09:51;4.90;99.90
16515;DHT22;8370;52.556;7.970;2023-02-01T05:12:16;4.90;99.90
16515;DHT22;8370;52.556;7.970;2023-02-01T05:15:01;4.90;99.90
16515;DHT22;8370;52.556;7.970;2023-02-01T05:17:26;4.80;99.90
16515;DHT22;8370;52.556;7.970;2023-02-01T05:19:52;4.90;99.90
16515;DHT22;8370;52.556;7.970;2023-02-01T05:22:17;4.90;99.90
16515;DHT22;8370;52.556;7.970;2023-02-01T05:24:43;4.90;99.90
16515;DHT22;8370;52.556;7.970;2023-02-01T05:27:08;5.00;99.90
16515;DHT22;8370;52.556;7.970;2023-02-01T05:29:34;5.00;99.90
16515;DHT22;8370;52.556;7.970;2023-02-01T05:31:59;5.00;99.90
16515;DHT22;8370;52.556;7.970;2023-02-01T05:34:25;5.00;99.90
16515;DHT22;8370;52.556;7.970;2023-02-01T05:36:50;5.00;99.90
16515;DHT22;8370;52.556;7.970;2023-02-01T05:39:16;5.10;99.90
16515;DHT22;8370;52.556;7.970;2023-02-01T05:41:41;5.10;99.90
16515;DHT22;8370;52.556;7.970;2023-02-01T05:44:07;5.10;99.90
16515;DHT22;8370;52.556;7.970;2023-02-01T05:46:33;5.20;99.90
16515;DHT22;8370;52.556;7.970;2023-02-01T05:48:59;5.20;99.90
16515;DHT22;8370;52.556;7.970;2023-02-01T05:51:24;5.20;99.90
16515;DHT22;8370;52.556;7.970;2023-02-01T05:53:50;5.20;99.90
16515;DHT22;8370;52.556;7.970;2023-02-01T05:56:15;5.20;99.90
16515;DHT22;8370;52.556;7.970;2023-02-01T05:58:41;5.20;99.90
16515;DHT22;8370;52.556;7.970;2023-02-01T06:01:06;5.20;99.90
16515;DHT22;8370;52.556;7.970;2023-02-01T06:03:32;5.20;99.90
16515;DHT22;8370;52.556;7.970;2023-02-01T06:05:57;5.20;99.90
16515;DHT22;8370;52.556;7.970;2023-02-01T06:08:23;5.30;99.90
16515;DHT22;8370;52.556;7.970;2023-02-01T06:11:01;5.30;99.90
16515;DHT22;8370;52.556;7.970;2023-02-01T06:13:27;5.40;99.90
16515;DHT22;8370;52.556;7.970;2023-02-01T06:15:52;5.40;99.90
16515;DHT22;8370;52.556;7.970;2023-02-01T06:18:18;5.50;99.90
16515;DHT22;8370;52.556;7.970;2023-02-01T06:20:44;5.50;99.90
16515;DHT22;8370;52.556;7.970;2023-02-01T06:23:09;5.60;99.90
16515;DHT22;8370;52.556;7.970;2023-02-01T06:25:35;5.60;99.90
16515;DHT22;8370;52.556;7.970;2023-02-01T06:28:01;5.70;99.90
16515;DHT22;8370;52.556;7.970;2023-02-01T06:30:27;5.70;99.90
16515;DHT22;8370;52.556;7.970;2023-02-01T06:32:52;5.80;99.90
16515;DHT22;8370;52.556;7.970;2023-02-01T06:35:19;5.90;99.90
16515;DHT22;8370;52.556;7.970;2023-02-01T06:37:44;5.90;99.90
16515;DHT22;8370;52.556;7.970;2023-02-01T06:40:10;5.90;99.90
16515;DHT22;8370;52.556;7.970;2023-02-01T06:42:36;6.00;99.90
16515;DHT22;8370;52.556;7.970;2023-02-01T06:45:02;6.00;99.90
16515;DHT22;8370;52.556;7.970;2023-02-01T06:47:28;6.00;99.90
16515;DHT22;8370;52.556;7.970;2023-02-01T06:49:53;6.00;99.90
16515;DHT22;8370;52.556;7.970;2023-02-01T06:52:19;6.00;99.90
16515;DHT22;8370;52.556;7.970;2023-02-01T06:54:44;6.10;99.90
16515;DHT22;8370;52.556;7.970;2023-02-01T06:57:10;6.00;99.90
16515;DHT22;8370;52.556;7.970;2023-02-01T06:59:35;6.00;99.90
16515;DHT22;8370;52.556;7.970;2023-02-01T07:02:01;6.10;99.90
16515;DHT22;8370;52.556;7.970;2023-02-01T07:04:26;6.10;99.90
16515;DHT22;8370;52.556;7.970;2023-02-01T07:06:51;6.10;99.90
16515;DHT22;8370;52.556;7.970;2023-02-01T07:09:17;6.10;99.90
16515;DHT22;8370;52.556;7.970;2023-02-01T07:11:42;6.10;99.90
16515;DHT22;8370;52.556;7.970;2023-02-01T07:14:10;6.10;99.90
16515;DHT22;8370;52.556;7.970;2023-02-01T07:16:35;6.10;99.90
16515;DHT22;8370;52.556;7.970;2023-02-01T07:19:01;6.20;99.90
16515;DHT22;8370;52.556;7.970;2023-02-01T07:21:27;6.20;99.90
16515;DHT22;8370;52.556;7.970;2023-02-01T07:23:53;6.30;99.90
16515;DHT22;8370;52.556;7.970;2023-02-01T07:26:19;6.30;99.90
16515;DHT22;8370;52.556;7.970;2023-02-01T07:28:44;6.30;99.90
16515;DHT22;8370;52.556;7.970;2023-02-01T07:31:13;6.30;99.90
16515;DHT22;8370;52.556;7.970;2023-02-01T07:33:40;6.40;99.90
16515;DHT22;8370;52.556;7.970;2023-02-01T07:36:08;6.40;99.90
16515;DHT22;8370;52.556;7.970;2023-02-01T07:38:35;6.40;99.90
16515;DHT22;8370;52.556;7.970;2023-02-01T07:41:02;6.40;99.90
16515;DHT22;8370;52.556;7.970;2023-02-01T07:43:28;6.50;99.90
16515;DHT22;8370;52.556;7.970;2023-02-01T07:45:55;6.50;99.90
16515;DHT22;8370;52.556;7.970;2023-02-01T07:48:22;6.50;99.90
16515;DHT22;8370;52.556;7.970;2023-02-01T07:50:48;6.60;99.90
16515;DHT22;8370;52.556;7.970;2023-02-01T07:53:14;6.60;99.90
16515;DHT22;8370;52.556;7.970;2023-02-01T07:55:40;6.60;99.90
16515;DHT22;8370;52.556;7.970;2023-02-01T07:58:05;6.60;99.90
16515;DHT22;8370;52.556;7.970;2023-02-01T08:00:31;6.60;99.90
16515;DHT22;8370;52.556;7.970;2023-02-01T08:03:15;6.60;99.90
16515;DHT22;8370;52.556;7.970;2023-02-01T08:05:41;6.60;99.90
16515;DHT22;8370;52.556;7.970;2023-02-01T08:08:06;6.60;99.90
16515;DHT22;8370;52.556;7.970;2023-02-01T08:10:32;6.60;99.90
16515;DHT22;8370;52.556;7.970;2023-02-01T08:12:59;6.50;99.90
16515;DHT22;8370;52.556;7.970;2023-02-01T08:15:28;6.60;99.90
16515;DHT22;8370;52.556;7.970;2023-02-01T08:17:54;6.60;99.90
16515;DHT22;8370;52.556;7.970;2023-02-01T08:20:21;6.60;99.90
16515;DHT22;8370;52.556;7.970;2023-02-01T08:22:51;6.60;99.90
16515;DHT22;8370;52.556;7.970;2023-02-01T08:25:17;6.60;99.90
16515;DHT22;8370;52.556;7.970;2023-02-01T08:27:43;6.60;99.90
16515;DHT22;8370;52.556;7.970;2023-02-01T08:30:09;6.50;99.90
16515;DHT22;8370;52.556;7.970;2023-02-01T08:32:35;6.50;99.90
16515;DHT22;8370;52.556;7.970;2023-02-01T08:35:01;6.50;99.90
16515;DHT22;8370;52.556;7.970;2023-02-01T08:37:26;6.50;99.90
16515;DHT22;8370;52.556;7.970;2023-02-01T08:39:52;6.50;99.90
16515;DHT22;8370;52.556;7.970;2023-02-01T08:42:18;6.50;99.90
16515;DHT22;8370;52.556;7.970;2023-02-01T08:45:03;6.50;99.90
16515;DHT22;8370;52.556;7.970;2023-02-01T08:47:29;6.60;99.90
16515;DHT22;8370;52.556;7.970;2023-02-01T08:49:55;6.50;99.90
16515;DHT22;8370;52.556;7.970;2023-02-01T08:52:21;6.50;99.90
16515;DHT22;8370;52.556;7.970;2023-02-01T08:54:46;6.60;99.90
16515;DHT22;8370;52.556;7.970;2023-02-01T08:57:12;6.60;99.90
16515;DHT22;8370;52.556;7.970;2023-02-01T08:59:38;6.70;99.90
16515;DHT22;8370;52.556;7.970;2023-02-01T09:02:03;6.70;99.90
16515;DHT22;8370;52.556;7.970;2023-02-01T09:04:29;6.80;99.90
16515;DHT22;8370;52.556;7.970;2023-02-01T09:06:55;6.90;99.90
16515;DHT22;8370;52.556;7.970;2023-02-01T09:09:23;6.90;99.90
16515;DHT22;8370;52.556;7.970;2023-02-01T09:11:49;7.00;99.90
16515;DHT22;8370;52.556;7.970;2023-02-01T09:14:16;7.00;99.90
16515;DHT22;8370;52.556;7.970;2023-02-01T09:16:41;7.00;99.90
16515;DHT22;8370;52.556;7.970;2023-02-01T09:19:07;7.10;99.90
16515;DHT22;8370;52.556;7.970;2023-02-01T09:21:32;7.10;99.90
16515;DHT22;8370;52.556;7.970;2023-02-01T09:23:58;7.10;99.90
16515;DHT22;8370;52.556;7.970;2023-02-01T09:26:23;7.10;99.90
16515;DHT22;8370;52.556;7.970;2023-02-01T09:28:50;7.10;99.90
16515;DHT22;8370;52.556;7.970;2023-02-01T09:31:15;7.10;99.90
16515;DHT22;8370;52.556;7.970;2023-02-01T09:33:41;7.10;99.90
16515;DHT22;8370;52.556;7.970;2023-02-01T09:36:07;7.10;99.90
16515;DHT22;8370;52.556;7.970;2023-02-01T09:38:32;7.10;99.90
16515;DHT22;8370;52.556;7.970;2023-02-01T09:40:58;7.10;99.90
16515;DHT22;8370;52.556;7.970;2023-02-01T09:46:22;7.20;99.90
16515;DHT22;8370;52.556;7.970;2023-02-01T09:48:53;7.20;99.90
16515;DHT22;8370;52.556;7.970;2023-02-01T09:51:24;7.20;99.90
16515;DHT22;8370;52.556;7.970;2023-02-01T09:54:01;7.20;99.90
16515;DHT22;8370;52.556;7.970;2023-02-01T09:56:40;7.20;99.90
16515;DHT22;8370;52.556;7.970;2023-02-01T09:59:18;7.20;99.90
16515;DHT22;8370;52.556;7.970;2023-02-01T10:01:47;7.20;99.90
16515;DHT22;8370;52.556;7.970;2023-02-01T10:04:14;7.20;99.90
16515;DHT22;8370;52.556;7.970;2023-02-01T10:06:56;7.20;99.90
16515;DHT22;8370;52.556;7.970;2023-02-01T10:09:57;7.20;99.90
16515;DHT22;8370;52.556;7.970;2023-02-01T10:12:35;7.20;99.90
16515;DHT22;8370;52.556;7.970;2023-02-01T10:18:12;7.10;99.90
16515;DHT22;8370;52.556;7.970;2023-02-01T10:20:57;7.10;99.90
16515;DHT22;8370;52.556;7.970;2023-02-01T10:26:24;7.10;99.90
16515;DHT22;8370;52.556;7.970;2023-02-01T10:28:56;7.10;99.90
16515;DHT22;8370;52.556;7.970;2023-02-01T10:31:25;7.10;99.90
16515;DHT22;8370;52.556;7.970;2023-02-01T10:33:56;7.10;99.90
16515;DHT22;8370;52.556;7.970;2023-02-01T10:36:32;7.10;99.90
16515;DHT22;8370;52.556;7.970;2023-02-01T10:39:00;7.10;99.90
16515;DHT22;8370;52.556;7.970;2023-02-01T10:41:32;7.10;99.90
16515;DHT22;8370;52.556;7.970;2023-02-01T10:43:59;7.10;99.90
16515;DHT22;8370;52.556;7.970;2023-02-01T10:46:26;7.10;99.90
16515;DHT22;8370;52.556;7.970;2023-02-01T10:48:54;7.10;99.90
16515;DHT22;8370;52.556;7.970;2023-02-01T10:51:51;7.00;99.90
16515;DHT22;8370;52.556;7.970;2023-02-01T10:54:17;6.90;99.90
16515;DHT22;8370;52.556;7.970;2023-02-01T10:56:46;6.80;99.90
16515;DHT22;8370;52.556;7.970;2023-02-01T10:59:18;6.70;99.90
16515;DHT22;8370;52.556;7.970;2023-02-01T11:01:46;6.50;99.90
16515;DHT22;8370;52.556;7.970;2023-02-01T11:04:14;6.40;99.90
16515;DHT22;8370;52.556;7.970;2023-02-01T11:06:43;6.30;99.90
16515;DHT22;8370;52.556;7.970;2023-02-01T11:11:54;6.20;99.90
16515;DHT22;8370;52.556;7.970;2023-02-01T11:16:52;6.10;99.90
16515;DHT22;8370;52.556;7.970;2023-02-01T11:19:18;6.00;99.90
16515;DHT22;8370;52.556;7.970;2023-02-01T11:21:44;5.90;99.90
16515;DHT22;8370;52.556;7.970;2023-02-01T11:24:34;5.80;99.90
16515;DHT22;8370;52.556;7.970;2023-02-01T11:27:03;5.70;99.90
16515;DHT22;8370;52.556;7.970;2023-02-01T11:29:38;5.60;99.90
16515;DHT22;8370;52.556;7.970;2023-02-01T11:32:04;5.60;99.90
16515;DHT22;8370;52.556;7.970;2023-02-01T11:34:39;5.60;99.90
16515;DHT22;8370;52.556;7.970;2023-02-01T11:39:42;5.60;99.90
16515;DHT22;8370;52.556;7.970;2023-02-01T11:42:14;5.60;99.90
16515;DHT22;8370;52.556;7.970;2023-02-01T11:44:42;5.60;99.90
16515;DHT22;8370;52.556;7.970;2023-02-01T11:47:26;5.50;99.90
16515;DHT22;8370;52.556;7.970;2023-02-01T11:49:57;5.50;99.90
16515;DHT22;8370;52.556;7.970;2023-02-01T11:55:42;5.50;99.90
16515;DHT22;8370;52.556;7.970;2023-02-01T11:58:35;5.50;99.90
16515;DHT22;8370;52.556;7.970;2023-02-01T12:04:01;5.60;99.90
16515;DHT22;8370;52.556;7.970;2023-02-01T12:06:55;5.50;99.90
16515;DHT22;8370;52.556;7.970;2023-02-01T12:28:51;5.80;99.90
16515;DHT22;8370;52.556;7.970;2023-02-01T12:39:39;5.80;99.90
16515;DHT22;8370;52.556;7.970;2023-02-01T12:42:16;5.80;99.90
16515;DHT22;8370;52.556;7.970;2023-02-01T12:45:01;5.70;99.90
16515;DHT22;8370;52.556;7.970;2023-02-01T12:47:40;5.70;99.90
16515;DHT22;8370;52.556;7.970;2023-02-01T12:50:22;5.70;99.90
16515;DHT22;8370;52.556;7.970;2023-02-01T12:52:52;5.70;99.90
16515;DHT22;8370;52.556;7.970;2023-02-01T12:55:38;5.70;99.90
16515;DHT22;8370;52.556;7.970;2023-02-01T12:58:31;5.70;99.90
16515;DHT22;8370;52.556;7.970;2023-02-01T13:01:05;5.80;99.90
16515;DHT22;8370;52.556;7.970;2023-02-01T13:03:53;5.80;99.90
16515;DHT22;8370;52.556;7.970;2023-02-01T13:06:36;5.90;99.90
16515;DHT22;8370;52.556;7.970;2023-02-01T13:12:17;6.10;99.90
16515;DHT22;8370;52.556;7.970;2023-02-01T13:17:26;6.30;99.90
16515;DHT22;8370;52.556;7.970;2023-02-01T13:20:05;6.90;99.90
16515;DHT22;8370;52.556;7.970;2023-02-01T13:22:43;7.20;99.90
16515;DHT22;8370;52.556;7.970;2023-02-01T13:25:29;7.30;99.90
16515;DHT22;8370;52.556;7.970;2023-02-01T13:28:01;7.00;99.90
16515;DHT22;8370;52.556;7.970;2023-02-01T13:30:38;6.70;99.90
16515;DHT22;8370;52.556;7.970;2023-02-01T13:33:26;6.40;99.90
16515;DHT22;8370;52.556;7.970;2023-02-01T13:36:05;6.20;99.90
16515;DHT22;8370;52.556;7.970;2023-02-01T13:38:49;6.10;99.90
16515;DHT22;8370;52.556;7.970;2023-02-01T13:41:28;6.30;99.90
16515;DHT22;8370;52.556;7.970;2023-02-01T13:44:07;6.20;99.90
16515;DHT22;8370;52.556;7.970;2023-02-01T13:46:44;6.20;99.90
16515;DHT22;8370;52.556;7.970;2023-02-01T13:49:37;6.30;99.90
16515;DHT22;8370;52.556;7.970;2023-02-01T13:52:04;6.30;99.90
16515;DHT22;8370;52.556;7.970;2023-02-01T13:54:36;6.20;99.90
16515;DHT22;8370;52.556;7.970;2023-02-01T13:57:04;6.30;99.90
16515;DHT22;8370;52.556;7.970;2023-02-01T14:05:12;7.10;99.90
16515;DHT22;8370;52.556;7.970;2023-02-01T14:13:37;7.10;99.90
16515;DHT22;8370;52.556;7.970;2023-02-01T14:18:57;7.30;99.90
16515;DHT22;8370;52.556;7.970;2023-02-01T14:21:31;7.40;99.90
16515;DHT22;8370;52.556;7.970;2023-02-01T14:26:46;7.30;99.90
16515;DHT22;8370;52.556;7.970;2023-02-01T14:31:52;6.90;99.90
16515;DHT22;8370;52.556;7.970;2023-02-01T14:37:10;6.20;99.90
16515;DHT22;8370;52.556;7.970;2023-02-01T14:42:34;5.80;99.90
16515;DHT22;8370;52.556;7.970;2023-02-01T14:53:17;5.80;99.90
16515;DHT22;8370;52.556;7.970;2023-02-01T14:56:19;5.80;99.90
16515;DHT22;8370;52.556;7.970;2023-02-01T14:58:57;5.80;99.90
16515;DHT22;8370;52.556;7.970;2023-02-01T15:01:29;5.80;99.90
16515;DHT22;8370;52.556;7.970;2023-02-01T15:04:00;5.90;99.90
16515;DHT22;8370;52.556;7.970;2023-02-01T15:06:41;6.00;99.90
16515;DHT22;8370;52.556;7.970;2023-02-01T15:09:26;6.00;99.90
16515;DHT22;8370;52.556;7.970;2023-02-01T15:14:43;6.00;99.90
16515;DHT22;8370;52.556;7.970;2023-02-01T15:17:25;6.10;99.90
16515;DHT22;8370;52.556;7.970;2023-02-01T15:20:00;6.10;99.90
16515;DHT22;8370;52.556;7.970;2023-02-01T15:22:28;6.10;99.90
16515;DHT22;8370;52.556;7.970;2023-02-01T15:26:31;6.20;99.90
16515;DHT22;8370;52.556;7.970;2023-02-01T15:28:58;6.40;99.90
16515;DHT22;8370;52.556;7.970;2023-02-01T15:31:45;6.50;99.90
16515;DHT22;8370;52.556;7.970;2023-02-01T15:34:11;6.60;99.90
16515;DHT22;8370;52.556;7.970;2023-02-01T15:36:37;6.70;99.90
16515;DHT22;8370;52.556;7.970;2023-02-01T15:39:22;6.70;99.90
16515;DHT22;8370;52.556;7.970;2023-02-01T15:41:53;6.80;99.90
16515;DHT22;8370;52.556;7.970;2023-02-01T15:44:27;6.90;99.90
16515;DHT22;8370;52.556;7.970;2023-02-01T15:46:54;6.80;99.90
16515;DHT22;8370;52.556;7.970;2023-02-01T15:49:27;6.90;99.90
16515;DHT22;8370;52.556;7.970;2023-02-01T15:51:54;6.80;99.90
16515;DHT22;8370;52.556;7.970;2023-02-01T15:54:43;6.80;99.90
16515;DHT22;8370;52.556;7.970;2023-02-01T15:57:11;6.80;99.90
16515;DHT22;8370;52.556;7.970;2023-02-01T15:59:42;6.80;99.90
16515;DHT22;8370;52.556;7.970;2023-02-01T16:04:53;6.80;99.90
16515;DHT22;8370;52.556;7.970;2023-02-01T16:07:27;6.80;99.90
16515;DHT22;8370;52.556;7.970;2023-02-01T16:09:55;6.80;99.90
16515;DHT22;8370;52.556;7.970;2023-02-01T16:12:31;6.80;99.90
16515;DHT22;8370;52.556;7.970;2023-02-01T16:14:57;6.80;99.90
16515;DHT22;8370;52.556;7.970;2023-02-01T16:17:22;6.80;99.90
16515;DHT22;8370;52.556;7.970;2023-02-01T16:19:48;6.90;99.90
16515;DHT22;8370;52.556;7.970;2023-02-01T16:22:13;6.90;99.90
16515;DHT22;8370;52.556;7.970;2023-02-01T16:24:39;6.90;99.90
16515;DHT22;8370;52.556;7.970;2023-02-01T16:27:05;6.90;99.90
16515;DHT22;8370;52.556;7.970;2023-02-01T16:29:32;6.90;99.90
16515;DHT22;8370;52.556;7.970;2023-02-01T16:31:58;6.90;99.90
16515;DHT22;8370;52.556;7.970;2023-02-01T16:34:23;6.90;99.90
16515;DHT22;8370;52.556;7.970;2023-02-01T16:36:49;6.90;99.90
16515;DHT22;8370;52.556;7.970;2023-02-01T16:39:21;7.00;99.90
16515;DHT22;8370;52.556;7.970;2023-02-01T16:41:46;6.90;99.90
16515;DHT22;8370;52.556;7.970;2023-02-01T16:44:12;7.00;99.90
16515;DHT22;8370;52.556;7.970;2023-02-01T16:46:43;7.00;99.90
16515;DHT22;8370;52.556;7.970;2023-02-01T16:49:21;6.90;99.90
16515;DHT22;8370;52.556;7.970;2023-02-01T16:51:48;7.00;99.90
16515;DHT22;8370;52.556;7.970;2023-02-01T16:54:14;7.00;99.90
16515;DHT22;8370;52.556;7.970;2023-02-01T16:56:41;6.90;99.90
16515;DHT22;8370;52.556;7.970;2023-02-01T16:59:07;6.90;99.90
16515;DHT22;8370;52.556;7.970;2023-02-01T17:01:34;7.00;99.90
16515;DHT22;8370;52.556;7.970;2023-02-01T17:04:00;7.00;99.90
16515;DHT22;8370;52.556;7.970;2023-02-01T17:06:26;7.00;99.90
16515;DHT22;8370;52.556;7.970;2023-02-01T17:08:54;7.00;99.90
16515;DHT22;8370;52.556;7.970;2023-02-01T17:11:20;7.00;99.90
16515;DHT22;8370;52.556;7.970;2023-02-01T17:13:46;7.00;99.90
16515;DHT22;8370;52.556;7.970;2023-02-01T17:16:29;7.00;99.90
16515;DHT22;8370;52.556;7.970;2023-02-01T17:19:03;6.90;99.90
16515;DHT22;8370;52.556;7.970;2023-02-01T17:21:38;6.90;99.90
16515;DHT22;8370;52.556;7.970;2023-02-01T17:24:05;6.90;99.90
16515;DHT22;8370;52.556;7.970;2023-02-01T17:26:30;7.00;99.90
16515;DHT22;8370;52.556;7.970;2023-02-01T17:28:55;7.00;99.90
16515;DHT22;8370;52.556;7.970;2023-02-01T17:31:22;7.10;99.90
16515;DHT22;8370;52.556;7.970;2023-02-01T17:33:47;7.10;99.90
16515;DHT22;8370;52.556;7.970;2023-02-01T17:36:15;7.10;99.90
16515;DHT22;8370;52.556;7.970;2023-02-01T17:38:40;7.00;99.90
16515;DHT22;8370;52.556;7.970;2023-02-01T17:41:08;7.00;99.90
16515;DHT22;8370;52.556;7.970;2023-02-01T17:43:34;7.00;99.90
16515;DHT22;8370;52.556;7.970;2023-02-01T17:46:15;7.00;99.90
16515;DHT22;8370;52.556;7.970;2023-02-01T17:48:41;7.10;99.90
16515;DHT22;8370;52.556;7.970;2023-02-01T17:51:15;7.00;99.90
16515;DHT22;8370;52.556;7.970;2023-02-01T17:53:41;7.00;99.90
16515;DHT22;8370;52.556;7.970;2023-02-01T17:56:12;7.00;99.90
16515;DHT22;8370;52.556;7.970;2023-02-01T17:58:38;7.00;99.90
16515;DHT22;8370;52.556;7.970;2023-02-01T18:01:03;7.00;99.90
16515;DHT22;8370;52.556;7.970;2023-02-01T18:03:30;6.90;99.90
16515;DHT22;8370;52.556;7.970;2023-02-01T18:05:58;6.90;99.90
16515;DHT22;8370;52.556;7.970;2023-02-01T18:08:28;6.80;99.90
16515;DHT22;8370;52.556;7.970;2023-02-01T18:10:57;6.80;99.90
16515;DHT22;8370;52.556;7.970;2023-02-01T18:13:30;6.80;99.90
16515;DHT22;8370;52.556;7.970;2023-02-01T18:15:56;6.80;99.90
16515;DHT22;8370;52.556;7.970;2023-02-01T18:18:24;6.90;99.90